Taylor, Michigan
Current Conditions -  °F | °C
As of 9:53 PM on Tuesday 21 Oct 2014 (Local Time) from KDTW Reporting Station
Overcast Overcast  
Wind Chill: 39°   Ceiling: 2000
Heat Index: 45°   Visibility: 10mi
Dew Point: 36°   Wind: 14mph
Humidity: 71%   Direction: 340°NNW
Pressure: 30.2"   Gusts: NA
Location:  42.23°N, 83.26°W
Report Text: KDTW 220153Z 34012KT 10SM OVC020 07/02 A3020 RMK AO2 SLP231 T00720022
Loading
Personal Weather Stations






























Interactive Weather Map
Tropical Storm Tracking
New forecast layout! Learn more

10-Day Weather Forecast

Advertisements
Track Severe Weather on mobile